sensor_id;sensor_type;location;lat;lon;timestamp;temperature;humidity
7447;DHT22;3765;47.962;7.952;2022-08-03T00:01:03;20.30;56.00
7447;DHT22;3765;47.962;7.952;2022-08-03T00:03:32;20.20;56.20
7447;DHT22;3765;47.962;7.952;2022-08-03T00:06:01;20.10;56.30
7447;DHT22;3765;47.962;7.952;2022-08-03T00:08:37;20.00;56.50
7447;DHT22;3765;47.962;7.952;2022-08-03T00:11:08;20.00;56.60
7447;DHT22;3765;47.962;7.952;2022-08-03T00:13:39;19.80;56.80
7447;DHT22;3765;47.962;7.952;2022-08-03T00:16:07;19.80;57.00
7447;DHT22;3765;47.962;7.952;2022-08-03T00:18:40;19.80;57.10
7447;DHT22;3765;47.962;7.952;2022-08-03T00:21:10;19.80;57.20
7447;DHT22;3765;47.962;7.952;2022-08-03T00:23:46;19.80;57.20
7447;DHT22;3765;47.962;7.952;2022-08-03T00:26:18;19.80;57.20
7447;DHT22;3765;47.962;7.952;2022-08-03T00:28:47;19.70;57.30
7447;DHT22;3765;47.962;7.952;2022-08-03T00:31:16;19.70;57.40
7447;DHT22;3765;47.962;7.952;2022-08-03T00:34:13;19.70;57.40
7447;DHT22;3765;47.962;7.952;2022-08-03T00:36:58;19.60;57.60
7447;DHT22;3765;47.962;7.952;2022-08-03T00:39:28;19.50;57.80
7447;DHT22;3765;47.962;7.952;2022-08-03T00:41:56;19.50;57.90
7447;DHT22;3765;47.962;7.952;2022-08-03T00:44:26;19.40;57.90
7447;DHT22;3765;47.962;7.952;2022-08-03T00:46:57;19.50;58.10
7447;DHT22;3765;47.962;7.952;2022-08-03T00:49:27;19.50;58.10
7447;DHT22;3765;47.962;7.952;2022-08-03T00:51:58;19.40;58.20
7447;DHT22;3765;47.962;7.952;2022-08-03T00:54:56;19.40;58.10
7447;DHT22;3765;47.962;7.952;2022-08-03T00:57:29;19.40;58.30
7447;DHT22;3765;47.962;7.952;2022-08-03T00:59:59;19.30;58.50
7447;DHT22;3765;47.962;7.952;2022-08-03T01:02:29;19.20;58.70
7447;DHT22;3765;47.962;7.952;2022-08-03T01:05:00;19.20;58.80
7447;DHT22;3765;47.962;7.952;2022-08-03T01:07:40;19.20;59.00
7447;DHT22;3765;47.962;7.952;2022-08-03T01:10:18;19.10;59.20
7447;DHT22;3765;47.962;7.952;2022-08-03T01:12:58;19.10;59.20
7447;DHT22;3765;47.962;7.952;2022-08-03T01:15:45;19.10;59.20
7447;DHT22;3765;47.962;7.952;2022-08-03T01:18:32;19.10;59.30
7447;DHT22;3765;47.962;7.952;2022-08-03T01:21:10;19.00;59.60
7447;DHT22;3765;47.962;7.952;2022-08-03T01:26:54;18.90;59.70
7447;DHT22;3765;47.962;7.952;2022-08-03T01:30:01;19.00;59.80
7447;DHT22;3765;47.962;7.952;2022-08-03T01:32:53;18.90;59.90
7447;DHT22;3765;47.962;7.952;2022-08-03T01:35:38;18.90;60.00
7447;DHT22;3765;47.962;7.952;2022-08-03T01:38:12;18.80;60.10
7447;DHT22;3765;47.962;7.952;2022-08-03T01:40:43;18.80;60.20
7447;DHT22;3765;47.962;7.952;2022-08-03T01:43:17;18.80;60.20
7447;DHT22;3765;47.962;7.952;2022-08-03T01:46:20;18.90;60.30
7447;DHT22;3765;47.962;7.952;2022-08-03T01:48:55;18.80;60.30
7447;DHT22;3765;47.962;7.952;2022-08-03T01:51:38;18.80;60.40
7447;DHT22;3765;47.962;7.952;2022-08-03T01:54:29;18.80;60.40
7447;DHT22;3765;47.962;7.952;2022-08-03T01:57:03;18.80;60.60
7447;DHT22;3765;47.962;7.952;2022-08-03T01:59:34;18.80;60.70
7447;DHT22;3765;47.962;7.952;2022-08-03T02:02:06;18.80;60.70
7447;DHT22;3765;47.962;7.952;2022-08-03T02:05:04;18.70;61.00
7447;DHT22;3765;47.962;7.952;2022-08-03T02:07:39;18.70;61.20
7447;DHT22;3765;47.962;7.952;2022-08-03T02:10:10;18.70;61.20
7447;DHT22;3765;47.962;7.952;2022-08-03T02:12:42;18.70;61.40
7447;DHT22;3765;47.962;7.952;2022-08-03T02:15:17;18.60;61.50
7447;DHT22;3765;47.962;7.952;2022-08-03T02:17:50;18.60;61.60
7447;DHT22;3765;47.962;7.952;2022-08-03T02:20:23;18.60;61.70
7447;DHT22;3765;47.962;7.952;2022-08-03T02:22:55;18.50;61.70
7447;DHT22;3765;47.962;7.952;2022-08-03T02:25:26;18.50;61.80
7447;DHT22;3765;47.962;7.952;2022-08-03T02:27:58;18.50;62.00
7447;DHT22;3765;47.962;7.952;2022-08-03T02:30:36;18.40;62.10
7447;DHT22;3765;47.962;7.952;2022-08-03T02:33:15;18.30;62.20
7447;DHT22;3765;47.962;7.952;2022-08-03T02:35:56;18.30;62.50
7447;DHT22;3765;47.962;7.952;2022-08-03T02:38:33;18.30;62.60
7447;DHT22;3765;47.962;7.952;2022-08-03T02:41:12;18.30;62.70
7447;DHT22;3765;47.962;7.952;2022-08-03T02:43:48;18.20;62.90
7447;DHT22;3765;47.962;7.952;2022-08-03T02:46:35;18.10;63.00
7447;DHT22;3765;47.962;7.952;2022-08-03T02:49:13;18.20;63.30
7447;DHT22;3765;47.962;7.952;2022-08-03T02:52:09;18.10;63.40
7447;DHT22;3765;47.962;7.952;2022-08-03T02:54:45;18.20;63.40
7447;DHT22;3765;47.962;7.952;2022-08-03T02:57:17;18.20;63.50
7447;DHT22;3765;47.962;7.952;2022-08-03T02:59:46;18.20;63.50
7447;DHT22;3765;47.962;7.952;2022-08-03T03:02:17;18.20;63.50
7447;DHT22;3765;47.962;7.952;2022-08-03T03:04:55;18.30;63.50
7447;DHT22;3765;47.962;7.952;2022-08-03T03:07:45;18.20;63.50
7447;DHT22;3765;47.962;7.952;2022-08-03T03:10:21;18.10;63.80
7447;DHT22;3765;47.962;7.952;2022-08-03T03:12:54;18.20;63.90
7447;DHT22;3765;47.962;7.952;2022-08-03T03:15:24;18.10;64.00
7447;DHT22;3765;47.962;7.952;2022-08-03T03:17:54;18.10;64.20
7447;DHT22;3765;47.962;7.952;2022-08-03T03:20:24;18.10;64.30
7447;DHT22;3765;47.962;7.952;2022-08-03T03:22:59;18.10;64.40
7447;DHT22;3765;47.962;7.952;2022-08-03T03:25:39;17.90;64.50
7447;DHT22;3765;47.962;7.952;2022-08-03T03:28:19;18.00;64.70
7447;DHT22;3765;47.962;7.952;2022-08-03T03:30:53;17.90;64.80
7447;DHT22;3765;47.962;7.952;2022-08-03T03:33:23;17.90;65.00
7447;DHT22;3765;47.962;7.952;2022-08-03T03:35:56;17.90;65.00
7447;DHT22;3765;47.962;7.952;2022-08-03T03:38:25;17.90;65.10
7447;DHT22;3765;47.962;7.952;2022-08-03T03:40:55;17.80;65.20
7447;DHT22;3765;47.962;7.952;2022-08-03T03:43:27;17.80;65.30
7447;DHT22;3765;47.962;7.952;2022-08-03T03:45:58;17.90;65.30
7447;DHT22;3765;47.962;7.952;2022-08-03T03:48:27;17.90;65.40
7447;DHT22;3765;47.962;7.952;2022-08-03T03:51:04;17.80;65.50
7447;DHT22;3765;47.962;7.952;2022-08-03T03:53:32;17.80;65.60
7447;DHT22;3765;47.962;7.952;2022-08-03T03:56:03;17.90;65.60
7447;DHT22;3765;47.962;7.952;2022-08-03T03:58:34;18.00;65.60
7447;DHT22;3765;47.962;7.952;2022-08-03T04:01:04;18.00;65.70
7447;DHT22;3765;47.962;7.952;2022-08-03T04:03:34;18.00;65.70
7447;DHT22;3765;47.962;7.952;2022-08-03T04:06:06;18.00;65.80
7447;DHT22;3765;47.962;7.952;2022-08-03T04:08:53;17.90;65.90
7447;DHT22;3765;47.962;7.952;2022-08-03T04:11:42;17.90;66.10
7447;DHT22;3765;47.962;7.952;2022-08-03T04:14:15;17.90;66.10
7447;DHT22;3765;47.962;7.952;2022-08-03T04:16:48;17.80;66.40
7447;DHT22;3765;47.962;7.952;2022-08-03T04:19:25;17.80;66.50
7447;DHT22;3765;47.962;7.952;2022-08-03T04:22:03;17.80;66.60
7447;DHT22;3765;47.962;7.952;2022-08-03T04:24:38;17.80;66.70
7447;DHT22;3765;47.962;7.952;2022-08-03T04:27:10;17.90;66.80
7447;DHT22;3765;47.962;7.952;2022-08-03T04:29:45;18.00;66.70
7447;DHT22;3765;47.962;7.952;2022-08-03T04:32:16;18.00;66.60
7447;DHT22;3765;47.962;7.952;2022-08-03T04:34:49;18.00;66.70
7447;DHT22;3765;47.962;7.952;2022-08-03T04:37:25;17.90;66.70
7447;DHT22;3765;47.962;7.952;2022-08-03T04:39:56;18.00;66.80
7447;DHT22;3765;47.962;7.952;2022-08-03T04:42:26;18.00;66.80
7447;DHT22;3765;47.962;7.952;2022-08-03T04:44:57;18.10;66.80
7447;DHT22;3765;47.962;7.952;2022-08-03T04:47:30;18.10;66.90
7447;DHT22;3765;47.962;7.952;2022-08-03T04:50:04;18.10;66.90
7447;DHT22;3765;47.962;7.952;2022-08-03T04:52:40;18.10;66.80
7447;DHT22;3765;47.962;7.952;2022-08-03T04:55:09;18.20;66.90
7447;DHT22;3765;47.962;7.952;2022-08-03T04:57:38;18.30;66.90
7447;DHT22;3765;47.962;7.952;2022-08-03T05:00:08;18.30;66.90
7447;DHT22;3765;47.962;7.952;2022-08-03T05:02:39;18.40;66.90
7447;DHT22;3765;47.962;7.952;2022-08-03T05:05:08;18.50;66.80
7447;DHT22;3765;47.962;7.952;2022-08-03T05:07:39;18.50;66.70
7447;DHT22;3765;47.962;7.952;2022-08-03T05:10:13;18.60;66.70
7447;DHT22;3765;47.962;7.952;2022-08-03T05:12:43;18.70;66.70
7447;DHT22;3765;47.962;7.952;2022-08-03T05:15:14;18.80;66.60
7447;DHT22;3765;47.962;7.952;2022-08-03T05:17:42;18.80;66.50
7447;DHT22;3765;47.962;7.952;2022-08-03T05:20:13;19.00;66.40
7447;DHT22;3765;47.962;7.952;2022-08-03T05:22:47;19.00;66.30
7447;DHT22;3765;47.962;7.952;2022-08-03T05:25:15;19.10;66.30
7447;DHT22;3765;47.962;7.952;2022-08-03T05:27:54;19.20;66.30
7447;DHT22;3765;47.962;7.952;2022-08-03T05:30:23;19.40;66.20
7447;DHT22;3765;47.962;7.952;2022-08-03T05:33:02;19.50;66.00
7447;DHT22;3765;47.962;7.952;2022-08-03T05:35:36;19.70;65.80
7447;DHT22;3765;47.962;7.952;2022-08-03T05:38:28;19.80;65.40
7447;DHT22;3765;47.962;7.952;2022-08-03T05:41:02;19.90;65.30
7447;DHT22;3765;47.962;7.952;2022-08-03T05:43:51;20.10;65.00
7447;DHT22;3765;47.962;7.952;2022-08-03T05:46:22;20.30;64.70
7447;DHT22;3765;47.962;7.952;2022-08-03T05:48:53;20.30;64.20
7447;DHT22;3765;47.962;7.952;2022-08-03T05:51:24;20.50;64.00
7447;DHT22;3765;47.962;7.952;2022-08-03T05:53:59;20.70;63.60
7447;DHT22;3765;47.962;7.952;2022-08-03T05:56:27;20.80;63.40
7447;DHT22;3765;47.962;7.952;2022-08-03T05:58:55;20.90;63.10
7447;DHT22;3765;47.962;7.952;2022-08-03T06:01:24;21.10;62.80
7447;DHT22;3765;47.962;7.952;2022-08-03T06:03:54;21.10;62.70
7447;DHT22;3765;47.962;7.952;2022-08-03T06:06:23;21.30;62.50
7447;DHT22;3765;47.962;7.952;2022-08-03T06:09:00;21.40;62.30
7447;DHT22;3765;47.962;7.952;2022-08-03T06:11:29;21.40;62.10
7447;DHT22;3765;47.962;7.952;2022-08-03T06:13:59;21.50;61.90
7447;DHT22;3765;47.962;7.952;2022-08-03T06:16:27;21.70;61.60
7447;DHT22;3765;47.962;7.952;2022-08-03T06:18:57;21.80;61.20
7447;DHT22;3765;47.962;7.952;2022-08-03T06:21:27;22.00;61.00
7447;DHT22;3765;47.962;7.952;2022-08-03T06:23:56;22.10;60.80
7447;DHT22;3765;47.962;7.952;2022-08-03T06:26:29;22.20;60.70
7447;DHT22;3765;47.962;7.952;2022-08-03T06:29:02;22.30;60.40
7447;DHT22;3765;47.962;7.952;2022-08-03T06:31:36;22.50;60.00
7447;DHT22;3765;47.962;7.952;2022-08-03T06:34:06;22.70;59.50
7447;DHT22;3765;47.962;7.952;2022-08-03T06:36:54;22.70;59.10
7447;DHT22;3765;47.962;7.952;2022-08-03T06:39:28;22.90;58.70
7447;DHT22;3765;47.962;7.952;2022-08-03T06:42:00;23.00;58.60
7447;DHT22;3765;47.962;7.952;2022-08-03T06:44:30;23.20;58.10
7447;DHT22;3765;47.962;7.952;2022-08-03T06:46:59;23.30;57.70
7447;DHT22;3765;47.962;7.952;2022-08-03T06:49:30;23.40;57.40
7447;DHT22;3765;47.962;7.952;2022-08-03T06:52:01;23.50;57.20
7447;DHT22;3765;47.962;7.952;2022-08-03T06:54:34;23.60;57.10
7447;DHT22;3765;47.962;7.952;2022-08-03T06:57:06;23.70;56.60
7447;DHT22;3765;47.962;7.952;2022-08-03T06:59:39;23.80;56.40
7447;DHT22;3765;47.962;7.952;2022-08-03T07:02:29;23.90;56.00
7447;DHT22;3765;47.962;7.952;2022-08-03T07:05:08;24.00;55.50
7447;DHT22;3765;47.962;7.952;2022-08-03T07:07:54;24.00;55.00
7447;DHT22;3765;47.962;7.952;2022-08-03T07:10:25;24.10;55.10
7447;DHT22;3765;47.962;7.952;2022-08-03T07:12:56;24.20;54.80
7447;DHT22;3765;47.962;7.952;2022-08-03T07:15:24;24.20;54.60
7447;DHT22;3765;47.962;7.952;2022-08-03T07:18:12;24.40;54.50
7447;DHT22;3765;47.962;7.952;2022-08-03T07:20:55;24.60;54.10
7447;DHT22;3765;47.962;7.952;2022-08-03T07:23:24;24.70;53.80
7447;DHT22;3765;47.962;7.952;2022-08-03T07:25:52;24.60;53.70
7447;DHT22;3765;47.962;7.952;2022-08-03T07:28:22;24.70;53.80
7447;DHT22;3765;47.962;7.952;2022-08-03T07:30:58;24.90;53.70
7447;DHT22;3765;47.962;7.952;2022-08-03T07:33:30;24.90;53.40
7447;DHT22;3765;47.962;7.952;2022-08-03T07:35:59;24.90;53.40
7447;DHT22;3765;47.962;7.952;2022-08-03T07:38:56;24.90;53.30
7447;DHT22;3765;47.962;7.952;2022-08-03T07:41:45;25.10;53.00
7447;DHT22;3765;47.962;7.952;2022-08-03T07:44:38;25.20;52.90
7447;DHT22;3765;47.962;7.952;2022-08-03T07:47:06;25.30;52.80
7447;DHT22;3765;47.962;7.952;2022-08-03T07:49:38;25.40;52.00
7447;DHT22;3765;47.962;7.952;2022-08-03T07:52:08;25.40;51.90
7447;DHT22;3765;47.962;7.952;2022-08-03T07:54:54;25.70;51.90
7447;DHT22;3765;47.962;7.952;2022-08-03T07:57:22;25.80;50.80
7447;DHT22;3765;47.962;7.952;2022-08-03T08:00:12;25.80;50.70
7447;DHT22;3765;47.962;7.952;2022-08-03T08:02:44;25.90;50.30
7447;DHT22;3765;47.962;7.952;2022-08-03T08:05:15;26.00;50.30
7447;DHT22;3765;47.962;7.952;2022-08-03T08:07:44;26.30;50.20
7447;DHT22;3765;47.962;7.952;2022-08-03T08:10:17;26.30;49.70
7447;DHT22;3765;47.962;7.952;2022-08-03T08:12:48;26.30;49.40
7447;DHT22;3765;47.962;7.952;2022-08-03T08:15:23;26.40;49.30
7447;DHT22;3765;47.962;7.952;2022-08-03T08:17:56;26.50;49.40
7447;DHT22;3765;47.962;7.952;2022-08-03T08:20:29;26.70;49.00
7447;DHT22;3765;47.962;7.952;2022-08-03T08:23:09;26.70;48.60
7447;DHT22;3765;47.962;7.952;2022-08-03T08:26:03;26.80;48.70
7447;DHT22;3765;47.962;7.952;2022-08-03T08:28:32;27.00;48.10
7447;DHT22;3765;47.962;7.952;2022-08-03T08:31:12;27.10;47.80
7447;DHT22;3765;47.962;7.952;2022-08-03T08:33:43;27.20;47.60
7447;DHT22;3765;47.962;7.952;2022-08-03T08:36:31;27.30;47.50
7447;DHT22;3765;47.962;7.952;2022-08-03T08:39:00;27.20;47.00
7447;DHT22;3765;47.962;7.952;2022-08-03T08:41:28;27.30;47.10
7447;DHT22;3765;47.962;7.952;2022-08-03T08:43:59;27.50;47.10
7447;DHT22;3765;47.962;7.952;2022-08-03T08:46:31;27.80;46.90
7447;DHT22;3765;47.962;7.952;2022-08-03T08:49:00;27.60;46.20
7447;DHT22;3765;47.962;7.952;2022-08-03T08:51:32;27.40;46.00
7447;DHT22;3765;47.962;7.952;2022-08-03T08:54:24;27.50;46.00
7447;DHT22;3765;47.962;7.952;2022-08-03T08:56:56;27.50;45.80
7447;DHT22;3765;47.962;7.952;2022-08-03T08:59:49;27.70;45.60
7447;DHT22;3765;47.962;7.952;2022-08-03T09:02:24;27.80;45.70
7447;DHT22;3765;47.962;7.952;2022-08-03T09:04:53;27.90;45.20
7447;DHT22;3765;47.962;7.952;2022-08-03T09:07:22;28.00;45.10
7447;DHT22;3765;47.962;7.952;2022-08-03T09:09:50;28.10;45.10
7447;DHT22;3765;47.962;7.952;2022-08-03T09:12:38;28.20;44.60
7447;DHT22;3765;47.962;7.952;2022-08-03T09:15:20;28.30;44.50
7447;DHT22;3765;47.962;7.952;2022-08-03T09:17:51;28.30;44.60
7447;DHT22;3765;47.962;7.952;2022-08-03T09:20:22;28.50;44.30
7447;DHT22;3765;47.962;7.952;2022-08-03T09:23:01;28.70;44.10
7447;DHT22;3765;47.962;7.952;2022-08-03T09:25:56;28.80;43.70
7447;DHT22;3765;47.962;7.952;2022-08-03T09:28:33;28.80;43.40
7447;DHT22;3765;47.962;7.952;2022-08-03T09:31:29;28.80;43.40
7447;DHT22;3765;47.962;7.952;2022-08-03T09:34:02;28.80;43.20
7447;DHT22;3765;47.962;7.952;2022-08-03T09:36:37;28.90;43.00
7447;DHT22;3765;47.962;7.952;2022-08-03T09:39:07;29.00;43.20
7447;DHT22;3765;47.962;7.952;2022-08-03T09:41:38;29.20;43.00
7447;DHT22;3765;47.962;7.952;2022-08-03T09:44:07;29.20;42.90
7447;DHT22;3765;47.962;7.952;2022-08-03T09:46:53;29.30;42.70
7447;DHT22;3765;47.962;7.952;2022-08-03T09:49:24;29.30;42.80
7447;DHT22;3765;47.962;7.952;2022-08-03T09:51:52;29.20;42.70
7447;DHT22;3765;47.962;7.952;2022-08-03T09:54:41;29.40;42.70
7447;DHT22;3765;47.962;7.952;2022-08-03T09:57:20;29.50;42.50
7447;DHT22;3765;47.962;7.952;2022-08-03T09:59:50;29.70;42.20
7447;DHT22;3765;47.962;7.952;2022-08-03T10:02:32;29.80;42.10
7447;DHT22;3765;47.962;7.952;2022-08-03T10:05:02;29.80;42.00
7447;DHT22;3765;47.962;7.952;2022-08-03T10:07:41;29.80;41.40
7447;DHT22;3765;47.962;7.952;2022-08-03T10:10:12;29.70;41.90
7447;DHT22;3765;47.962;7.952;2022-08-03T10:12:57;29.80;41.40
7447;DHT22;3765;47.962;7.952;2022-08-03T10:15:26;30.00;41.60
7447;DHT22;3765;47.962;7.952;2022-08-03T10:18:15;30.20;41.40
7447;DHT22;3765;47.962;7.952;2022-08-03T10:20:49;30.20;41.10
7447;DHT22;3765;47.962;7.952;2022-08-03T10:23:19;30.20;40.80
7447;DHT22;3765;47.962;7.952;2022-08-03T10:25:52;30.20;40.70
7447;DHT22;3765;47.962;7.952;2022-08-03T10:28:23;30.20;40.80
7447;DHT22;3765;47.962;7.952;2022-08-03T10:30:52;30.30;40.60
7447;DHT22;3765;47.962;7.952;2022-08-03T10:33:24;30.40;40.40
7447;DHT22;3765;47.962;7.952;2022-08-03T10:36:15;30.50;40.20
7447;DHT22;3765;47.962;7.952;2022-08-03T10:38:46;30.50;40.00
7447;DHT22;3765;47.962;7.952;2022-08-03T10:41:19;30.60;39.90
7447;DHT22;3765;47.962;7.952;2022-08-03T10:43:50;30.70;39.60
7447;DHT22;3765;47.962;7.952;2022-08-03T10:46:20;30.70;39.30
7447;DHT22;3765;47.962;7.952;2022-08-03T10:48:49;30.70;39.20
7447;DHT22;3765;47.962;7.952;2022-08-03T10:51:22;30.80;39.20
7447;DHT22;3765;47.962;7.952;2022-08-03T10:53:50;30.70;39.00
7447;DHT22;3765;47.962;7.952;2022-08-03T10:56:39;30.60;39.10
7447;DHT22;3765;47.962;7.952;2022-08-03T10:59:59;30.80;39.30
7447;DHT22;3765;47.962;7.952;2022-08-03T11:05:41;31.00;38.60
7447;DHT22;3765;47.962;7.952;2022-08-03T11:08:22;30.90;38.80
7447;DHT22;3765;47.962;7.952;2022-08-03T11:10:52;31.10;38.70
7447;DHT22;3765;47.962;7.952;2022-08-03T11:13:23;31.30;38.60
7447;DHT22;3765;47.962;7.952;2022-08-03T11:15:54;31.30;38.10
7447;DHT22;3765;47.962;7.952;2022-08-03T11:18:28;31.20;38.30
7447;DHT22;3765;47.962;7.952;2022-08-03T11:20:58;31.20;38.40
7447;DHT22;3765;47.962;7.952;2022-08-03T11:23:45;31.30;38.10
7447;DHT22;3765;47.962;7.952;2022-08-03T11:26:32;31.30;38.30
7447;DHT22;3765;47.962;7.952;2022-08-03T11:29:27;31.50;37.90
7447;DHT22;3765;47.962;7.952;2022-08-03T11:31:59;31.50;37.50
7447;DHT22;3765;47.962;7.952;2022-08-03T11:34:29;31.60;37.90
7447;DHT22;3765;47.962;7.952;2022-08-03T11:37:21;31.80;37.80
7447;DHT22;3765;47.962;7.952;2022-08-03T11:40:35;31.80;37.30
7447;DHT22;3765;47.962;7.952;2022-08-03T11:43:08;31.50;37.20
7447;DHT22;3765;47.962;7.952;2022-08-03T11:45:37;31.90;37.00
7447;DHT22;3765;47.962;7.952;2022-08-03T11:48:15;32.10;37.00
7447;DHT22;3765;47.962;7.952;2022-08-03T11:50:46;31.90;36.80
7447;DHT22;3765;47.962;7.952;2022-08-03T11:53:17;32.20;36.80
7447;DHT22;3765;47.962;7.952;2022-08-03T11:55:47;32.10;36.40
7447;DHT22;3765;47.962;7.952;2022-08-03T11:58:20;32.20;36.40
7447;DHT22;3765;47.962;7.952;2022-08-03T12:01:08;32.30;36.70
7447;DHT22;3765;47.962;7.952;2022-08-03T12:03:39;32.60;36.20
7447;DHT22;3765;47.962;7.952;2022-08-03T12:06:10;32.70;36.20
7447;DHT22;3765;47.962;7.952;2022-08-03T12:08:44;32.70;35.90
7447;DHT22;3765;47.962;7.952;2022-08-03T12:11:17;32.70;35.70
7447;DHT22;3765;47.962;7.952;2022-08-03T12:13:48;32.70;35.70
7447;DHT22;3765;47.962;7.952;2022-08-03T12:16:39;32.80;35.90
7447;DHT22;3765;47.962;7.952;2022-08-03T12:19:07;33.30;35.40
7447;DHT22;3765;47.962;7.952;2022-08-03T12:21:45;33.40;35.00
7447;DHT22;3765;47.962;7.952;2022-08-03T12:24:23;33.40;35.10
7447;DHT22;3765;47.962;7.952;2022-08-03T12:26:55;33.10;34.80
7447;DHT22;3765;47.962;7.952;2022-08-03T12:29:26;33.10;34.90
7447;DHT22;3765;47.962;7.952;2022-08-03T12:31:55;32.80;34.90
7447;DHT22;3765;47.962;7.952;2022-08-03T12:34:23;33.30;35.10
7447;DHT22;3765;47.962;7.952;2022-08-03T12:36:56;33.20;34.50
7447;DHT22;3765;47.962;7.952;2022-08-03T12:39:26;33.50;34.70
7447;DHT22;3765;47.962;7.952;2022-08-03T12:41:58;33.70;34.30
7447;DHT22;3765;47.962;7.952;2022-08-03T12:44:29;33.40;34.40
7447;DHT22;3765;47.962;7.952;2022-08-03T12:46:58;33.30;34.10
7447;DHT22;3765;47.962;7.952;2022-08-03T12:49:27;33.20;34.30
7447;DHT22;3765;47.962;7.952;2022-08-03T12:51:57;33.30;34.30
7447;DHT22;3765;47.962;7.952;2022-08-03T12:54:33;33.50;34.00
7447;DHT22;3765;47.962;7.952;2022-08-03T12:57:04;33.10;33.90
7447;DHT22;3765;47.962;7.952;2022-08-03T12:59:34;33.30;34.20
7447;DHT22;3765;47.962;7.952;2022-08-03T13:02:14;33.60;34.20
7447;DHT22;3765;47.962;7.952;2022-08-03T13:04:44;34.00;33.60
7447;DHT22;3765;47.962;7.952;2022-08-03T13:07:13;33.90;33.50
7447;DHT22;3765;47.962;7.952;2022-08-03T13:09:45;34.10;33.30
7447;DHT22;3765;47.962;7.952;2022-08-03T13:12:16;34.00;33.60
7447;DHT22;3765;47.962;7.952;2022-08-03T13:14:46;34.50;33.20
7447;DHT22;3765;47.962;7.952;2022-08-03T13:17:15;34.70;33.10
7447;DHT22;3765;47.962;7.952;2022-08-03T13:19:45;34.60;32.80
7447;DHT22;3765;47.962;7.952;2022-08-03T13:22:15;34.70;32.60
7447;DHT22;3765;47.962;7.952;2022-08-03T13:24:45;34.90;32.70
7447;DHT22;3765;47.962;7.952;2022-08-03T13:27:15;35.40;32.50
7447;DHT22;3765;47.962;7.952;2022-08-03T13:30:05;35.80;31.80
7447;DHT22;3765;47.962;7.952;2022-08-03T13:32:36;35.40;31.50
7447;DHT22;3765;47.962;7.952;2022-08-03T13:35:19;35.10;31.70
7447;DHT22;3765;47.962;7.952;2022-08-03T13:37:50;35.70;31.70
7447;DHT22;3765;47.962;7.952;2022-08-03T13:40:20;35.50;31.40
7447;DHT22;3765;47.962;7.952;2022-08-03T13:43:09;35.10;31.20
7447;DHT22;3765;47.962;7.952;2022-08-03T13:45:40;35.00;31.40
7447;DHT22;3765;47.962;7.952;2022-08-03T13:48:19;35.00;31.10
7447;DHT22;3765;47.962;7.952;2022-08-03T13:51:04;35.00;31.70
7447;DHT22;3765;47.962;7.952;2022-08-03T13:53:49;35.30;31.60
7447;DHT22;3765;47.962;7.952;2022-08-03T13:56:18;35.70;31.30
7447;DHT22;3765;47.962;7.952;2022-08-03T13:58:47;36.30;31.00
7447;DHT22;3765;47.962;7.952;2022-08-03T14:01:18;36.10;30.40
7447;DHT22;3765;47.962;7.952;2022-08-03T14:04:10;36.00;30.70
7447;DHT22;3765;47.962;7.952;2022-08-03T14:06:47;36.40;30.30
7447;DHT22;3765;47.962;7.952;2022-08-03T14:09:16;36.30;30.00
7447;DHT22;3765;47.962;7.952;2022-08-03T14:11:44;36.10;30.30
7447;DHT22;3765;47.962;7.952;2022-08-03T14:14:34;35.90;30.10
7447;DHT22;3765;47.962;7.952;2022-08-03T14:17:03;35.90;30.20
7447;DHT22;3765;47.962;7.952;2022-08-03T14:19:31;36.10;30.10
7447;DHT22;3765;47.962;7.952;2022-08-03T14:22:18;36.10;29.60
7447;DHT22;3765;47.962;7.952;2022-08-03T14:24:46;35.80;29.70
7447;DHT22;3765;47.962;7.952;2022-08-03T14:27:18;35.80;29.80
7447;DHT22;3765;47.962;7.952;2022-08-03T14:29:48;35.90;29.80
7447;DHT22;3765;47.962;7.952;2022-08-03T14:32:16;36.20;29.40
7447;DHT22;3765;47.962;7.952;2022-08-03T14:34:47;36.20;29.40
7447;DHT22;3765;47.962;7.952;2022-08-03T14:37:15;36.20;29.40
7447;DHT22;3765;47.962;7.952;2022-08-03T14:39:43;36.30;29.00
7447;DHT22;3765;47.962;7.952;2022-08-03T14:42:28;36.50;28.70
7447;DHT22;3765;47.962;7.952;2022-08-03T14:44:57;36.80;28.40
7447;DHT22;3765;47.962;7.952;2022-08-03T14:47:33;36.80;27.50
7447;DHT22;3765;47.962;7.952;2022-08-03T14:50:21;36.60;26.80
7447;DHT22;3765;47.962;7.952;2022-08-03T14:53:04;37.00;26.80
7447;DHT22;3765;47.962;7.952;2022-08-03T14:55:33;37.60;26.00
7447;DHT22;3765;47.962;7.952;2022-08-03T14:58:04;37.70;25.30
7447;DHT22;3765;47.962;7.952;2022-08-03T15:00:49;37.90;25.50
7447;DHT22;3765;47.962;7.952;2022-08-03T15:03:18;38.30;24.50
7447;DHT22;3765;47.962;7.952;2022-08-03T15:05:50;37.60;24.20
7447;DHT22;3765;47.962;7.952;2022-08-03T15:08:18;37.30;24.60
7447;DHT22;3765;47.962;7.952;2022-08-03T15:10:47;38.20;24.40
7447;DHT22;3765;47.962;7.952;2022-08-03T15:13:16;38.80;23.90
7447;DHT22;3765;47.962;7.952;2022-08-03T15:15:45;39.00;23.20
7447;DHT22;3765;47.962;7.952;2022-08-03T15:18:15;39.30;23.20
7447;DHT22;3765;47.962;7.952;2022-08-03T15:20:43;38.90;22.80
7447;DHT22;3765;47.962;7.952;2022-08-03T15:23:14;38.70;22.90
7447;DHT22;3765;47.962;7.952;2022-08-03T15:25:43;39.40;22.50
7447;DHT22;3765;47.962;7.952;2022-08-03T15:28:31;39.30;22.40
7447;DHT22;3765;47.962;7.952;2022-08-03T15:31:03;39.20;22.20
7447;DHT22;3765;47.962;7.952;2022-08-03T15:33:32;38.80;22.00
7447;DHT22;3765;47.962;7.952;2022-08-03T15:36:01;38.70;21.90
7447;DHT22;3765;47.962;7.952;2022-08-03T15:38:30;39.00;21.90
7447;DHT22;3765;47.962;7.952;2022-08-03T15:40:58;39.70;21.70
7447;DHT22;3765;47.962;7.952;2022-08-03T15:43:26;41.20;20.80
7447;DHT22;3765;47.962;7.952;2022-08-03T15:45:55;41.20;20.00
7447;DHT22;3765;47.962;7.952;2022-08-03T15:48:45;41.80;19.80
7447;DHT22;3765;47.962;7.952;2022-08-03T15:51:14;42.80;19.40
7447;DHT22;3765;47.962;7.952;2022-08-03T15:53:42;44.10;19.00
7447;DHT22;3765;47.962;7.952;2022-08-03T15:56:11;45.20;18.70
7447;DHT22;3765;47.962;7.952;2022-08-03T15:58:44;45.30;18.00
7447;DHT22;3765;47.962;7.952;2022-08-03T16:01:32;46.30;17.50
7447;DHT22;3765;47.962;7.952;2022-08-03T16:04:02;47.30;17.10
7447;DHT22;3765;47.962;7.952;2022-08-03T16:06:31;46.70;17.10
7447;DHT22;3765;47.962;7.952;2022-08-03T16:09:03;46.10;16.90
7447;DHT22;3765;47.962;7.952;2022-08-03T16:11:52;45.60;16.90
7447;DHT22;3765;47.962;7.952;2022-08-03T16:14:20;46.90;15.90
7447;DHT22;3765;47.962;7.952;2022-08-03T16:17:02;47.60;15.60
7447;DHT22;3765;47.962;7.952;2022-08-03T16:19:31;48.60;15.50
7447;DHT22;3765;47.962;7.952;2022-08-03T16:22:01;48.60;14.90
7447;DHT22;3765;47.962;7.952;2022-08-03T16:24:30;46.20;15.40
7447;DHT22;3765;47.962;7.952;2022-08-03T16:26:58;45.00;16.00
7447;DHT22;3765;47.962;7.952;2022-08-03T16:29:27;44.50;16.00
7447;DHT22;3765;47.962;7.952;2022-08-03T16:31:55;45.10;16.10
7447;DHT22;3765;47.962;7.952;2022-08-03T16:34:23;45.60;15.70
7447;DHT22;3765;47.962;7.952;2022-08-03T16:36:53;45.90;16.00
7447;DHT22;3765;47.962;7.952;2022-08-03T16:39:21;46.80;15.80
7447;DHT22;3765;47.962;7.952;2022-08-03T16:41:50;46.80;15.60
7447;DHT22;3765;47.962;7.952;2022-08-03T16:44:28;46.60;15.80
7447;DHT22;3765;47.962;7.952;2022-08-03T16:46:57;46.30;15.90
7447;DHT22;3765;47.962;7.952;2022-08-03T16:49:25;46.10;16.20
7447;DHT22;3765;47.962;7.952;2022-08-03T16:52:15;46.10;16.50
7447;DHT22;3765;47.962;7.952;2022-08-03T16:54:44;46.20;16.50
7447;DHT22;3765;47.962;7.952;2022-08-03T16:57:18;45.10;16.70